sensor_id;sensor_type;location;lat;lon;timestamp;P1;durP1;ratioP1;P2;durP2;ratioP2
30384;SDS011;17181;51.002;4.096;2024-03-29T00:00:57;3.20;;;0.43;;
30384;SDS011;17181;51.002;4.096;2024-03-29T00:11:13;0.37;;;0.17;;
30384;SDS011;17181;51.002;4.096;2024-03-29T00:13:39;1.43;;;0.27;;
30384;SDS011;17181;51.002;4.096;2024-03-29T00:16:04;0.83;;;0.20;;
30384;SDS011;17181;51.002;4.096;2024-03-29T00:18:31;0.43;;;0.43;;
30384;SDS011;17181;51.002;4.096;2024-03-29T00:20:57;0.67;;;0.37;;
30384;SDS011;17181;51.002;4.096;2024-03-29T00:23:22;0.13;;;0.13;;
30384;SDS011;17181;51.002;4.096;2024-03-29T00:25:48;0.43;;;0.30;;
30384;SDS011;17181;51.002;4.096;2024-03-29T00:28:14;1.90;;;0.50;;
30384;SDS011;17181;51.002;4.096;2024-03-29T00:30:40;0.10;;;0.10;;
30384;SDS011;17181;51.002;4.096;2024-03-29T00:33:06;0.20;;;0.20;;
30384;SDS011;17181;51.002;4.096;2024-03-29T00:35:31;0.70;;;0.20;;
30384;SDS011;17181;51.002;4.096;2024-03-29T00:37:58;0.93;;;0.40;;
30384;SDS011;17181;51.002;4.096;2024-03-29T00:40:24;0.30;;;0.23;;
30384;SDS011;17181;51.002;4.096;2024-03-29T00:42:50;0.07;;;0.03;;
30384;SDS011;17181;51.002;4.096;2024-03-29T00:45:15;3.53;;;0.50;;
30384;SDS011;17181;51.002;4.096;2024-03-29T00:47:42;0.10;;;0.10;;
30384;SDS011;17181;51.002;4.096;2024-03-29T00:50:08;3.30;;;0.10;;
30384;SDS011;17181;51.002;4.096;2024-03-29T00:52:34;0.33;;;0.30;;
30384;SDS011;17181;51.002;4.096;2024-03-29T00:55:00;3.10;;;0.47;;
30384;SDS011;17181;51.002;4.096;2024-03-29T00:57:26;0.10;;;0.10;;
30384;SDS011;17181;51.002;4.096;2024-03-29T00:59:52;6.07;;;0.30;;
30384;SDS011;17181;51.002;4.096;2024-03-29T01:02:18;2.10;;;1.20;;
30384;SDS011;17181;51.002;4.096;2024-03-29T01:04:44;0.67;;;0.30;;
30384;SDS011;17181;51.002;4.096;2024-03-29T01:07:09;0.20;;;0.10;;
30384;SDS011;17181;51.002;4.096;2024-03-29T01:09:35;2.30;;;0.80;;
30384;SDS011;17181;51.002;4.096;2024-03-29T01:12:01;0.20;;;0.20;;
30384;SDS011;17181;51.002;4.096;2024-03-29T01:14:27;0.50;;;0.30;;
30384;SDS011;17181;51.002;4.096;2024-03-29T01:16:52;3.90;;;0.43;;
30384;SDS011;17181;51.002;4.096;2024-03-29T01:19:18;0.73;;;0.20;;
30384;SDS011;17181;51.002;4.096;2024-03-29T01:21:44;0.00;;;0.00;;
30384;SDS011;17181;51.002;4.096;2024-03-29T01:24:10;1.10;;;0.30;;
30384;SDS011;17181;51.002;4.096;2024-03-29T01:26:36;1.17;;;0.60;;
30384;SDS011;17181;51.002;4.096;2024-03-29T01:29:02;0.67;;;0.37;;
30384;SDS011;17181;51.002;4.096;2024-03-29T01:31:27;0.20;;;0.20;;
30384;SDS011;17181;51.002;4.096;2024-03-29T01:33:53;0.10;;;0.10;;
30384;SDS011;17181;51.002;4.096;2024-03-29T01:36:22;1.10;;;0.33;;
30384;SDS011;17181;51.002;4.096;2024-03-29T01:38:48;0.17;;;0.17;;
30384;SDS011;17181;51.002;4.096;2024-03-29T01:41:17;0.57;;;0.37;;
30384;SDS011;17181;51.002;4.096;2024-03-29T01:43:43;0.20;;;0.20;;
30384;SDS011;17181;51.002;4.096;2024-03-29T01:46:09;0.10;;;0.10;;
30384;SDS011;17181;51.002;4.096;2024-03-29T01:48:35;1.03;;;0.23;;
30384;SDS011;17181;51.002;4.096;2024-03-29T01:51:01;4.63;;;0.63;;
30384;SDS011;17181;51.002;4.096;2024-03-29T01:53:28;2.33;;;0.17;;
30384;SDS011;17181;51.002;4.096;2024-03-29T01:55:54;0.63;;;0.63;;
30384;SDS011;17181;51.002;4.096;2024-03-29T01:58:20;2.23;;;0.40;;
30384;SDS011;17181;51.002;4.096;2024-03-29T02:00:52;1.30;;;0.53;;
30384;SDS011;17181;51.002;4.096;2024-03-29T02:03:22;2.83;;;0.67;;
30384;SDS011;17181;51.002;4.096;2024-03-29T02:05:48;0.50;;;0.30;;
30384;SDS011;17181;51.002;4.096;2024-03-29T02:08:14;0.93;;;0.47;;
30384;SDS011;17181;51.002;4.096;2024-03-29T02:10:41;0.00;;;0.00;;
30384;SDS011;17181;51.002;4.096;2024-03-29T02:13:08;0.00;;;0.00;;
30384;SDS011;17181;51.002;4.096;2024-03-29T02:15:34;0.10;;;0.10;;
30384;SDS011;17181;51.002;4.096;2024-03-29T02:18:00;2.17;;;0.33;;
30384;SDS011;17181;51.002;4.096;2024-03-29T02:20:26;0.10;;;0.10;;
30384;SDS011;17181;51.002;4.096;2024-03-29T02:22:57;0.23;;;0.17;;
30384;SDS011;17181;51.002;4.096;2024-03-29T02:25:29;0.10;;;0.10;;
30384;SDS011;17181;51.002;4.096;2024-03-29T02:27:55;3.37;;;0.27;;
30384;SDS011;17181;51.002;4.096;2024-03-29T02:30:21;1.00;;;0.17;;
30384;SDS011;17181;51.002;4.096;2024-03-29T02:32:47;0.00;;;0.00;;
30384;SDS011;17181;51.002;4.096;2024-03-29T02:35:13;0.77;;;0.40;;
30384;SDS011;17181;51.002;4.096;2024-03-29T02:37:39;0.00;;;0.00;;
30384;SDS011;17181;51.002;4.096;2024-03-29T02:40:05;0.20;;;0.20;;
30384;SDS011;17181;51.002;4.096;2024-03-29T02:42:34;0.00;;;0.00;;
30384;SDS011;17181;51.002;4.096;2024-03-29T02:45:04;0.10;;;0.10;;
30384;SDS011;17181;51.002;4.096;2024-03-29T02:47:30;0.47;;;0.07;;
30384;SDS011;17181;51.002;4.096;2024-03-29T02:49:56;0.10;;;0.10;;
30384;SDS011;17181;51.002;4.096;2024-03-29T02:52:22;0.37;;;0.23;;
30384;SDS011;17181;51.002;4.096;2024-03-29T02:54:48;0.10;;;0.10;;
30384;SDS011;17181;51.002;4.096;2024-03-29T02:57:14;0.00;;;0.00;;
30384;SDS011;17181;51.002;4.096;2024-03-29T02:59:40;0.10;;;0.10;;
30384;SDS011;17181;51.002;4.096;2024-03-29T03:02:06;0.10;;;0.10;;
30384;SDS011;17181;51.002;4.096;2024-03-29T03:04:32;0.67;;;0.20;;
30384;SDS011;17181;51.002;4.096;2024-03-29T03:06:58;2.33;;;0.27;;
30384;SDS011;17181;51.002;4.096;2024-03-29T03:09:43;0.00;;;0.00;;
30384;SDS011;17181;51.002;4.096;2024-03-29T03:12:31;3.57;;;0.67;;
30384;SDS011;17181;51.002;4.096;2024-03-29T03:14:57;1.50;;;0.57;;
30384;SDS011;17181;51.002;4.096;2024-03-29T03:17:24;1.40;;;0.20;;
30384;SDS011;17181;51.002;4.096;2024-03-29T03:19:54;0.00;;;0.00;;
30384;SDS011;17181;51.002;4.096;2024-03-29T03:22:20;0.00;;;0.00;;
30384;SDS011;17181;51.002;4.096;2024-03-29T03:24:45;0.50;;;0.33;;
30384;SDS011;17181;51.002;4.096;2024-03-29T03:27:11;0.00;;;0.00;;
30384;SDS011;17181;51.002;4.096;2024-03-29T03:29:37;1.10;;;0.20;;
30384;SDS011;17181;51.002;4.096;2024-03-29T03:32:04;2.00;;;0.73;;
30384;SDS011;17181;51.002;4.096;2024-03-29T03:34:30;1.33;;;0.30;;
30384;SDS011;17181;51.002;4.096;2024-03-29T03:36:57;7.20;;;0.90;;
30384;SDS011;17181;51.002;4.096;2024-03-29T03:39:23;0.83;;;0.63;;
30384;SDS011;17181;51.002;4.096;2024-03-29T03:41:49;0.70;;;0.47;;
30384;SDS011;17181;51.002;4.096;2024-03-29T03:44:15;2.60;;;0.40;;
30384;SDS011;17181;51.002;4.096;2024-03-29T03:46:41;3.63;;;0.73;;
30384;SDS011;17181;51.002;4.096;2024-03-29T03:49:07;1.80;;;1.20;;
30384;SDS011;17181;51.002;4.096;2024-03-29T03:51:33;2.83;;;0.77;;
30384;SDS011;17181;51.002;4.096;2024-03-29T03:53:59;1.40;;;0.77;;
30384;SDS011;17181;51.002;4.096;2024-03-29T03:56:25;0.50;;;0.23;;
30384;SDS011;17181;51.002;4.096;2024-03-29T03:58:51;2.07;;;1.43;;
30384;SDS011;17181;51.002;4.096;2024-03-29T04:01:17;1.03;;;0.77;;
30384;SDS011;17181;51.002;4.096;2024-03-29T04:03:43;1.47;;;0.37;;
30384;SDS011;17181;51.002;4.096;2024-03-29T04:06:09;0.83;;;0.27;;
30384;SDS011;17181;51.002;4.096;2024-03-29T04:08:35;1.50;;;0.70;;
30384;SDS011;17181;51.002;4.096;2024-03-29T04:11:04;2.03;;;0.47;;
30384;SDS011;17181;51.002;4.096;2024-03-29T04:13:30;0.60;;;0.60;;
30384;SDS011;17181;51.002;4.096;2024-03-29T04:16:02;1.57;;;0.33;;
30384;SDS011;17181;51.002;4.096;2024-03-29T04:18:29;0.93;;;0.80;;
30384;SDS011;17181;51.002;4.096;2024-03-29T04:20:58;1.73;;;0.80;;
30384;SDS011;17181;51.002;4.096;2024-03-29T04:23:25;0.83;;;0.73;;
30384;SDS011;17181;51.002;4.096;2024-03-29T04:25:51;0.30;;;0.30;;
30384;SDS011;17181;51.002;4.096;2024-03-29T04:28:21;3.90;;;1.20;;
30384;SDS011;17181;51.002;4.096;2024-03-29T04:30:54;0.70;;;0.70;;
30384;SDS011;17181;51.002;4.096;2024-03-29T04:33:20;1.17;;;0.90;;
30384;SDS011;17181;51.002;4.096;2024-03-29T04:35:52;0.50;;;0.50;;
30384;SDS011;17181;51.002;4.096;2024-03-29T04:38:25;0.83;;;0.70;;
30384;SDS011;17181;51.002;4.096;2024-03-29T04:40:53;1.23;;;0.50;;
30384;SDS011;17181;51.002;4.096;2024-03-29T04:43:21;0.57;;;0.50;;
30384;SDS011;17181;51.002;4.096;2024-03-29T04:45:48;0.47;;;0.30;;
30384;SDS011;17181;51.002;4.096;2024-03-29T04:48:14;0.50;;;0.50;;
30384;SDS011;17181;51.002;4.096;2024-03-29T04:50:40;2.83;;;0.87;;
30384;SDS011;17181;51.002;4.096;2024-03-29T04:53:09;2.13;;;1.07;;
30384;SDS011;17181;51.002;4.096;2024-03-29T04:55:35;0.37;;;0.37;;
30384;SDS011;17181;51.002;4.096;2024-03-29T04:58:01;9.33;;;0.83;;
30384;SDS011;17181;51.002;4.096;2024-03-29T05:00:28;0.97;;;0.60;;
30384;SDS011;17181;51.002;4.096;2024-03-29T05:02:53;0.23;;;0.23;;
30384;SDS011;17181;51.002;4.096;2024-03-29T05:05:19;0.53;;;0.20;;
30384;SDS011;17181;51.002;4.096;2024-03-29T05:07:45;3.30;;;0.30;;
30384;SDS011;17181;51.002;4.096;2024-03-29T05:10:11;0.67;;;0.63;;
30384;SDS011;17181;51.002;4.096;2024-03-29T05:12:39;0.33;;;0.33;;
30384;SDS011;17181;51.002;4.096;2024-03-29T05:15:06;3.20;;;1.30;;
30384;SDS011;17181;51.002;4.096;2024-03-29T05:17:32;0.60;;;0.57;;
30384;SDS011;17181;51.002;4.096;2024-03-29T05:19:58;0.77;;;0.40;;
30384;SDS011;17181;51.002;4.096;2024-03-29T05:22:24;0.97;;;0.50;;
30384;SDS011;17181;51.002;4.096;2024-03-29T05:24:54;1.03;;;0.57;;
30384;SDS011;17181;51.002;4.096;2024-03-29T05:27:20;0.07;;;0.07;;
30384;SDS011;17181;51.002;4.096;2024-03-29T05:29:56;0.30;;;0.30;;
30384;SDS011;17181;51.002;4.096;2024-03-29T05:32:22;0.10;;;0.10;;
30384;SDS011;17181;51.002;4.096;2024-03-29T05:34:48;0.10;;;0.10;;
30384;SDS011;17181;51.002;4.096;2024-03-29T05:37:14;0.80;;;0.40;;
30384;SDS011;17181;51.002;4.096;2024-03-29T05:39:42;1.27;;;0.60;;
30384;SDS011;17181;51.002;4.096;2024-03-29T05:42:08;4.23;;;0.47;;
30384;SDS011;17181;51.002;4.096;2024-03-29T05:44:37;0.73;;;0.73;;
30384;SDS011;17181;51.002;4.096;2024-03-29T05:47:06;0.00;;;0.00;;
30384;SDS011;17181;51.002;4.096;2024-03-29T05:49:32;0.10;;;0.10;;
30384;SDS011;17181;51.002;4.096;2024-03-29T05:51:58;2.87;;;0.67;;
30384;SDS011;17181;51.002;4.096;2024-03-29T05:54:25;0.40;;;0.40;;
30384;SDS011;17181;51.002;4.096;2024-03-29T05:56:51;0.40;;;0.40;;
30384;SDS011;17181;51.002;4.096;2024-03-29T05:59:21;0.40;;;0.10;;
30384;SDS011;17181;51.002;4.096;2024-03-29T06:01:47;0.40;;;0.40;;
30384;SDS011;17181;51.002;4.096;2024-03-29T06:04:13;0.10;;;0.10;;
30384;SDS011;17181;51.002;4.096;2024-03-29T06:06:44;0.40;;;0.23;;
30384;SDS011;17181;51.002;4.096;2024-03-29T06:09:10;1.07;;;0.30;;
30384;SDS011;17181;51.002;4.096;2024-03-29T06:11:37;0.40;;;0.33;;
30384;SDS011;17181;51.002;4.096;2024-03-29T06:14:12;0.20;;;0.20;;
30384;SDS011;17181;51.002;4.096;2024-03-29T06:16:57;0.10;;;0.10;;
30384;SDS011;17181;51.002;4.096;2024-03-29T06:19:42;0.20;;;0.20;;
30384;SDS011;17181;51.002;4.096;2024-03-29T06:22:11;0.73;;;0.43;;
30384;SDS011;17181;51.002;4.096;2024-03-29T06:24:40;0.43;;;0.30;;
30384;SDS011;17181;51.002;4.096;2024-03-29T06:27:09;0.40;;;0.30;;
30384;SDS011;17181;51.002;4.096;2024-03-29T06:29:35;5.43;;;0.73;;
30384;SDS011;17181;51.002;4.096;2024-03-29T06:32:05;0.33;;;0.30;;
30384;SDS011;17181;51.002;4.096;2024-03-29T06:34:32;0.50;;;0.40;;
30384;SDS011;17181;51.002;4.096;2024-03-29T06:36:58;0.63;;;0.33;;
30384;SDS011;17181;51.002;4.096;2024-03-29T06:39:24;0.33;;;0.23;;
30384;SDS011;17181;51.002;4.096;2024-03-29T06:41:51;0.10;;;0.10;;
30384;SDS011;17181;51.002;4.096;2024-03-29T06:44:17;0.37;;;0.20;;
30384;SDS011;17181;51.002;4.096;2024-03-29T06:46:43;0.90;;;0.07;;
30384;SDS011;17181;51.002;4.096;2024-03-29T06:49:10;0.33;;;0.10;;
30384;SDS011;17181;51.002;4.096;2024-03-29T06:51:38;5.43;;;0.60;;
30384;SDS011;17181;51.002;4.096;2024-03-29T06:54:05;0.30;;;0.20;;
30384;SDS011;17181;51.002;4.096;2024-03-29T06:56:31;2.40;;;0.40;;
30384;SDS011;17181;51.002;4.096;2024-03-29T06:58:58;0.00;;;0.00;;
30384;SDS011;17181;51.002;4.096;2024-03-29T07:01:24;0.00;;;0.00;;
30384;SDS011;17181;51.002;4.096;2024-03-29T07:03:50;0.30;;;0.17;;
30384;SDS011;17181;51.002;4.096;2024-03-29T07:06:16;0.33;;;0.33;;
30384;SDS011;17181;51.002;4.096;2024-03-29T07:08:42;0.20;;;0.20;;
30384;SDS011;17181;51.002;4.096;2024-03-29T07:11:08;0.30;;;0.30;;
30384;SDS011;17181;51.002;4.096;2024-03-29T07:13:35;0.10;;;0.10;;
30384;SDS011;17181;51.002;4.096;2024-03-29T07:16:02;0.20;;;0.20;;
30384;SDS011;17181;51.002;4.096;2024-03-29T07:18:29;0.13;;;0.13;;
30384;SDS011;17181;51.002;4.096;2024-03-29T07:20:55;6.23;;;0.57;;
30384;SDS011;17181;51.002;4.096;2024-03-29T07:23:21;0.57;;;0.40;;
30384;SDS011;17181;51.002;4.096;2024-03-29T07:25:57;0.70;;;0.70;;
30384;SDS011;17181;51.002;4.096;2024-03-29T07:28:28;3.60;;;0.53;;
30384;SDS011;17181;51.002;4.096;2024-03-29T07:30:55;0.60;;;0.60;;
30384;SDS011;17181;51.002;4.096;2024-03-29T07:33:21;0.30;;;0.20;;
30384;SDS011;17181;51.002;4.096;2024-03-29T07:35:52;2.23;;;0.40;;
30384;SDS011;17181;51.002;4.096;2024-03-29T11:51:37;0.03;;;0.03;;
30384;SDS011;17181;51.002;4.096;2024-03-29T11:54:04;0.20;;;0.20;;
30384;SDS011;17181;51.002;4.096;2024-03-29T11:56:32;0.20;;;0.20;;
30384;SDS011;17181;51.002;4.096;2024-03-29T11:58:58;0.37;;;0.37;;
30384;SDS011;17181;51.002;4.096;2024-03-29T12:01:26;0.20;;;0.20;;
30384;SDS011;17181;51.002;4.096;2024-03-29T12:03:54;0.17;;;0.10;;
30384;SDS011;17181;51.002;4.096;2024-03-29T12:06:20;0.20;;;0.20;;
30384;SDS011;17181;51.002;4.096;2024-03-29T12:08:46;0.63;;;0.40;;
30384;SDS011;17181;51.002;4.096;2024-03-29T12:11:14;0.20;;;0.20;;
30384;SDS011;17181;51.002;4.096;2024-03-29T12:13:40;0.43;;;0.43;;
30384;SDS011;17181;51.002;4.096;2024-03-29T12:16:06;0.03;;;0.03;;
30384;SDS011;17181;51.002;4.096;2024-03-29T12:18:33;2.83;;;0.40;;
30384;SDS011;17181;51.002;4.096;2024-03-29T12:21:00;0.20;;;0.20;;
30384;SDS011;17181;51.002;4.096;2024-03-29T12:23:26;0.10;;;0.10;;
30384;SDS011;17181;51.002;4.096;2024-03-29T12:25:56;0.37;;;0.30;;
30384;SDS011;17181;51.002;4.096;2024-03-29T12:28:24;0.20;;;0.20;;
30384;SDS011;17181;51.002;4.096;2024-03-29T12:30:51;0.07;;;0.07;;
30384;SDS011;17181;51.002;4.096;2024-03-29T12:33:18;0.07;;;0.07;;
30384;SDS011;17181;51.002;4.096;2024-03-29T12:35:49;0.57;;;0.40;;
30384;SDS011;17181;51.002;4.096;2024-03-29T12:38:18;0.67;;;0.47;;
30384;SDS011;17181;51.002;4.096;2024-03-29T12:40:45;5.70;;;0.20;;
30384;SDS011;17181;51.002;4.096;2024-03-29T12:43:13;0.73;;;0.10;;
30384;SDS011;17181;51.002;4.096;2024-03-29T12:45:47;1.80;;;0.23;;
30384;SDS011;17181;51.002;4.096;2024-03-29T12:50:43;0.20;;;0.20;;
30384;SDS011;17181;51.002;4.096;2024-03-29T12:53:11;0.57;;;0.30;;
30384;SDS011;17181;51.002;4.096;2024-03-29T12:55:39;0.10;;;0.10;;
30384;SDS011;17181;51.002;4.096;2024-03-29T12:58:07;0.53;;;0.30;;
30384;SDS011;17181;51.002;4.096;2024-03-29T13:00:36;0.10;;;0.10;;
30384;SDS011;17181;51.002;4.096;2024-03-29T13:03:03;0.37;;;0.37;;
30384;SDS011;17181;51.002;4.096;2024-03-29T13:05:30;0.87;;;0.30;;
30384;SDS011;17181;51.002;4.096;2024-03-29T13:08:03;0.27;;;0.20;;
30384;SDS011;17181;51.002;4.096;2024-03-29T13:10:30;0.30;;;0.27;;
30384;SDS011;17181;51.002;4.096;2024-03-29T13:12:57;0.10;;;0.10;;
30384;SDS011;17181;51.002;4.096;2024-03-29T13:15:23;0.23;;;0.23;;
30384;SDS011;17181;51.002;4.096;2024-03-29T13:17:50;0.10;;;0.10;;
30384;SDS011;17181;51.002;4.096;2024-03-29T13:20:20;0.40;;;0.33;;
30384;SDS011;17181;51.002;4.096;2024-03-29T13:22:49;0.27;;;0.17;;
30384;SDS011;17181;51.002;4.096;2024-03-29T13:25:17;5.87;;;0.80;;
30384;SDS011;17181;51.002;4.096;2024-03-29T13:27:46;0.60;;;0.20;;
30384;SDS011;17181;51.002;4.096;2024-03-29T13:30:13;0.10;;;0.10;;
30384;SDS011;17181;51.002;4.096;2024-03-29T13:32:43;0.40;;;0.40;;
30384;SDS011;17181;51.002;4.096;2024-03-29T13:35:12;0.70;;;0.70;;
30384;SDS011;17181;51.002;4.096;2024-03-29T13:40:07;0.17;;;0.17;;
30384;SDS011;17181;51.002;4.096;2024-03-29T13:42:37;0.13;;;0.13;;
30384;SDS011;17181;51.002;4.096;2024-03-29T13:45:03;0.10;;;0.10;;
30384;SDS011;17181;51.002;4.096;2024-03-29T13:47:33;0.33;;;0.10;;
30384;SDS011;17181;51.002;4.096;2024-03-29T13:50:01;0.20;;;0.20;;
30384;SDS011;17181;51.002;4.096;2024-03-29T13:52:27;3.60;;;0.37;;
30384;SDS011;17181;51.002;4.096;2024-03-29T13:54:53;0.77;;;0.40;;
30384;SDS011;17181;51.002;4.096;2024-03-29T13:57:19;0.37;;;0.20;;
30384;SDS011;17181;51.002;4.096;2024-03-29T13:59:46;0.53;;;0.53;;
30384;SDS011;17181;51.002;4.096;2024-03-29T14:02:12;0.60;;;0.60;;
30384;SDS011;17181;51.002;4.096;2024-03-29T14:04:40;0.97;;;0.20;;
30384;SDS011;17181;51.002;4.096;2024-03-29T14:07:08;0.40;;;0.20;;
30384;SDS011;17181;51.002;4.096;2024-03-29T14:09:39;0.20;;;0.20;;
30384;SDS011;17181;51.002;4.096;2024-03-29T14:12:06;0.40;;;0.40;;
30384;SDS011;17181;51.002;4.096;2024-03-29T14:14:32;0.23;;;0.23;;
30384;SDS011;17181;51.002;4.096;2024-03-29T14:16:59;4.13;;;0.63;;
30384;SDS011;17181;51.002;4.096;2024-03-29T14:19:35;0.60;;;0.40;;
30384;SDS011;17181;51.002;4.096;2024-03-29T14:22:02;0.50;;;0.50;;
30384;SDS011;17181;51.002;4.096;2024-03-29T14:24:34;0.43;;;0.30;;
30384;SDS011;17181;51.002;4.096;2024-03-29T14:27:05;0.43;;;0.43;;
30384;SDS011;17181;51.002;4.096;2024-03-29T14:29:31;1.10;;;0.53;;
30384;SDS011;17181;51.002;4.096;2024-03-29T14:31:58;1.20;;;0.47;;
30384;SDS011;17181;51.002;4.096;2024-03-29T14:34:24;0.30;;;0.30;;
30384;SDS011;17181;51.002;4.096;2024-03-29T14:36:50;0.20;;;0.20;;
30384;SDS011;17181;51.002;4.096;2024-03-29T14:39:17;0.50;;;0.50;;
30384;SDS011;17181;51.002;4.096;2024-03-29T14:41:44;0.30;;;0.30;;
30384;SDS011;17181;51.002;4.096;2024-03-29T14:44:12;0.10;;;0.10;;
30384;SDS011;17181;51.002;4.096;2024-03-29T14:46:38;0.20;;;0.20;;
30384;SDS011;17181;51.002;4.096;2024-03-29T14:49:04;0.20;;;0.20;;
30384;SDS011;17181;51.002;4.096;2024-03-29T14:51:32;0.37;;;0.37;;
30384;SDS011;17181;51.002;4.096;2024-03-29T14:53:59;0.20;;;0.20;;
30384;SDS011;17181;51.002;4.096;2024-03-29T14:56:28;0.10;;;0.10;;
30384;SDS011;17181;51.002;4.096;2024-03-29T14:59:02;0.10;;;0.10;;
30384;SDS011;17181;51.002;4.096;2024-03-29T15:01:34;1.53;;;0.40;;
30384;SDS011;17181;51.002;4.096;2024-03-29T15:04:03;1.20;;;0.43;;
30384;SDS011;17181;51.002;4.096;2024-03-29T15:06:29;0.20;;;0.20;;
30384;SDS011;17181;51.002;4.096;2024-03-29T15:08:56;0.40;;;0.40;;
30384;SDS011;17181;51.002;4.096;2024-03-29T15:11:23;1.43;;;0.20;;
30384;SDS011;17181;51.002;4.096;2024-03-29T15:13:50;1.90;;;0.37;;
30384;SDS011;17181;51.002;4.096;2024-03-29T15:16:16;0.20;;;0.20;;
30384;SDS011;17181;51.002;4.096;2024-03-29T15:18:43;0.10;;;0.10;;
30384;SDS011;17181;51.002;4.096;2024-03-29T15:21:10;0.10;;;0.10;;
30384;SDS011;17181;51.002;4.096;2024-03-29T15:23:36;0.17;;;0.17;;
30384;SDS011;17181;51.002;4.096;2024-03-29T15:26:03;0.77;;;0.10;;
30384;SDS011;17181;51.002;4.096;2024-03-29T15:28:29;2.67;;;0.40;;
30384;SDS011;17181;51.002;4.096;2024-03-29T15:31:17;2.07;;;0.27;;
30384;SDS011;17181;51.002;4.096;2024-03-29T15:33:47;2.60;;;0.40;;
30384;SDS011;17181;51.002;4.096;2024-03-29T15:36:14;0.13;;;0.13;;
30384;SDS011;17181;51.002;4.096;2024-03-29T15:38:41;0.00;;;0.00;;
30384;SDS011;17181;51.002;4.096;2024-03-29T15:41:07;2.10;;;0.20;;
30384;SDS011;17181;51.002;4.096;2024-03-29T15:43:34;0.00;;;0.00;;
30384;SDS011;17181;51.002;4.096;2024-03-29T15:46:03;1.97;;;0.30;;
30384;SDS011;17181;51.002;4.096;2024-03-29T15:48:30;0.20;;;0.20;;
30384;SDS011;17181;51.002;4.096;2024-03-29T15:50:58;0.10;;;0.10;;
30384;SDS011;17181;51.002;4.096;2024-03-29T15:53:24;3.20;;;0.47;;
30384;SDS011;17181;51.002;4.096;2024-03-29T15:55:50;0.13;;;0.13;;
30384;SDS011;17181;51.002;4.096;2024-03-29T15:58:16;0.00;;;0.00;;
30384;SDS011;17181;51.002;4.096;2024-03-29T16:00:42;0.20;;;0.20;;
30384;SDS011;17181;51.002;4.096;2024-03-29T16:03:15;4.63;;;0.60;;
30384;SDS011;17181;51.002;4.096;2024-03-29T16:05:41;0.10;;;0.10;;
30384;SDS011;17181;51.002;4.096;2024-03-29T16:08:08;0.50;;;0.50;;
30384;SDS011;17181;51.002;4.096;2024-03-29T16:10:49;1.03;;;0.60;;
30384;SDS011;17181;51.002;4.096;2024-03-29T16:13:24;0.60;;;0.50;;
30384;SDS011;17181;51.002;4.096;2024-03-29T16:15:52;0.27;;;0.20;;
30384;SDS011;17181;51.002;4.096;2024-03-29T16:18:19;0.20;;;0.20;;
30384;SDS011;17181;51.002;4.096;2024-03-29T16:20:45;0.23;;;0.23;;
30384;SDS011;17181;51.002;4.096;2024-03-29T16:23:12;0.10;;;0.10;;
30384;SDS011;17181;51.002;4.096;2024-03-29T16:25:38;0.60;;;0.50;;
30384;SDS011;17181;51.002;4.096;2024-03-29T16:28:06;0.10;;;0.10;;
30384;SDS011;17181;51.002;4.096;2024-03-29T16:30:37;0.33;;;0.23;;
30384;SDS011;17181;51.002;4.096;2024-03-29T16:33:03;1.60;;;0.30;;
30384;SDS011;17181;51.002;4.096;2024-03-29T16:35:30;1.20;;;0.50;;
30384;SDS011;17181;51.002;4.096;2024-03-29T16:37:59;2.20;;;0.50;;
30384;SDS011;17181;51.002;4.096;2024-03-29T16:40:26;0.33;;;0.33;;
30384;SDS011;17181;51.002;4.096;2024-03-29T16:42:52;0.90;;;0.40;;
30384;SDS011;17181;51.002;4.096;2024-03-29T16:45:18;0.40;;;0.40;;
30384;SDS011;17181;51.002;4.096;2024-03-29T16:47:44;1.60;;;0.70;;
30384;SDS011;17181;51.002;4.096;2024-03-29T16:50:10;1.13;;;0.63;;
30384;SDS011;17181;51.002;4.096;2024-03-29T16:52:36;2.43;;;1.10;;
30384;SDS011;17181;51.002;4.096;2024-03-29T16:55:02;6.53;;;0.53;;
30384;SDS011;17181;51.002;4.096;2024-03-29T16:57:31;0.33;;;0.33;;
30384;SDS011;17181;51.002;4.096;2024-03-29T16:59:56;0.67;;;0.20;;
30384;SDS011;17181;51.002;4.096;2024-03-29T17:02:22;0.87;;;0.60;;
30384;SDS011;17181;51.002;4.096;2024-03-29T17:04:48;0.97;;;0.47;;
30384;SDS011;17181;51.002;4.096;2024-03-29T17:07:16;0.60;;;0.60;;
30384;SDS011;17181;51.002;4.096;2024-03-29T17:09:42;0.97;;;0.80;;
30384;SDS011;17181;51.002;4.096;2024-03-29T17:12:11;0.63;;;0.63;;
30384;SDS011;17181;51.002;4.096;2024-03-29T17:14:37;1.00;;;0.50;;
30384;SDS011;17181;51.002;4.096;2024-03-29T17:17:04;1.43;;;0.40;;
30384;SDS011;17181;51.002;4.096;2024-03-29T17:19:30;1.33;;;0.50;;
30384;SDS011;17181;51.002;4.096;2024-03-29T17:21:57;0.30;;;0.30;;
30384;SDS011;17181;51.002;4.096;2024-03-29T17:24:23;0.63;;;0.60;;
30384;SDS011;17181;51.002;4.096;2024-03-29T17:26:49;0.70;;;0.70;;
30384;SDS011;17181;51.002;4.096;2024-03-29T17:29:16;0.73;;;0.70;;
30384;SDS011;17181;51.002;4.096;2024-03-29T17:31:42;2.37;;;0.80;;
30384;SDS011;17181;51.002;4.096;2024-03-29T17:34:11;0.63;;;0.60;;
30384;SDS011;17181;51.002;4.096;2024-03-29T17:36:40;0.60;;;0.50;;
30384;SDS011;17181;51.002;4.096;2024-03-29T17:39:08;3.40;;;0.67;;
30384;SDS011;17181;51.002;4.096;2024-03-29T17:41:34;0.90;;;0.90;;
30384;SDS011;17181;51.002;4.096;2024-03-29T17:44:00;0.37;;;0.37;;
30384;SDS011;17181;51.002;4.096;2024-03-29T17:46:26;3.00;;;1.17;;
30384;SDS011;17181;51.002;4.096;2024-03-29T17:48:52;2.23;;;1.10;;
30384;SDS011;17181;51.002;4.096;2024-03-29T17:51:18;2.70;;;0.70;;
30384;SDS011;17181;51.002;4.096;2024-03-29T17:53:43;2.93;;;1.17;;
30384;SDS011;17181;51.002;4.096;2024-03-29T17:56:09;0.87;;;0.87;;
30384;SDS011;17181;51.002;4.096;2024-03-29T17:58:35;2.23;;;0.80;;
30384;SDS011;17181;51.002;4.096;2024-03-29T18:01:01;2.87;;;0.83;;
30384;SDS011;17181;51.002;4.096;2024-03-29T18:03:27;0.70;;;0.40;;
30384;SDS011;17181;51.002;4.096;2024-03-29T18:05:53;1.83;;;1.20;;
30384;SDS011;17181;51.002;4.096;2024-03-29T18:08:19;0.40;;;0.40;;
30384;SDS011;17181;51.002;4.096;2024-03-29T18:10:46;1.30;;;0.77;;
30384;SDS011;17181;51.002;4.096;2024-03-29T18:13:12;0.93;;;0.73;;
30384;SDS011;17181;51.002;4.096;2024-03-29T18:15:45;9.10;;;1.20;;
30384;SDS011;17181;51.002;4.096;2024-03-29T18:18:12;1.57;;;1.13;;
30384;SDS011;17181;51.002;4.096;2024-03-29T18:20:38;1.20;;;1.10;;
30384;SDS011;17181;51.002;4.096;2024-03-29T18:23:04;1.83;;;1.00;;
30384;SDS011;17181;51.002;4.096;2024-03-29T18:25:34;2.10;;;1.10;;
30384;SDS011;17181;51.002;4.096;2024-03-29T18:28:00;0.80;;;0.80;;
30384;SDS011;17181;51.002;4.096;2024-03-29T18:30:29;1.93;;;0.90;;
30384;SDS011;17181;51.002;4.096;2024-03-29T18:33:01;2.77;;;1.20;;
30384;SDS011;17181;51.002;4.096;2024-03-29T18:35:27;4.27;;;1.37;;
30384;SDS011;17181;51.002;4.096;2024-03-29T18:37:54;3.37;;;0.93;;
30384;SDS011;17181;51.002;4.096;2024-03-29T18:40:20;1.67;;;1.37;;
30384;SDS011;17181;51.002;4.096;2024-03-29T18:42:46;3.50;;;1.20;;
30384;SDS011;17181;51.002;4.096;2024-03-29T18:45:13;2.03;;;1.53;;
30384;SDS011;17181;51.002;4.096;2024-03-29T18:47:41;2.43;;;1.27;;
30384;SDS011;17181;51.002;4.096;2024-03-29T18:50:07;1.57;;;1.47;;
30384;SDS011;17181;51.002;4.096;2024-03-29T18:52:33;1.73;;;1.47;;
30384;SDS011;17181;51.002;4.096;2024-03-29T18:54:59;6.00;;;1.90;;
30384;SDS011;17181;51.002;4.096;2024-03-29T18:57:26;3.23;;;2.00;;
30384;SDS011;17181;51.002;4.096;2024-03-29T18:59:52;4.53;;;1.60;;
30384;SDS011;17181;51.002;4.096;2024-03-29T19:02:18;8.63;;;1.77;;
30384;SDS011;17181;51.002;4.096;2024-03-29T19:04:44;6.83;;;1.50;;
30384;SDS011;17181;51.002;4.096;2024-03-29T19:07:10;1.37;;;1.27;;
30384;SDS011;17181;51.002;4.096;2024-03-29T19:09:35;2.00;;;1.13;;
30384;SDS011;17181;51.002;4.096;2024-03-29T19:12:02;4.77;;;1.63;;
30384;SDS011;17181;51.002;4.096;2024-03-29T19:14:28;2.60;;;1.70;;